Time;durP1;ratioP1;P1;durP2;ratioP2;P2;SDS_P1;SDS_P2;PMS_P1;PMS_P2;Temp;Humidity;BMP_temperature;BMP_pressure;BME280_temperature;BME280_humidity;BME280_pressure;Samples;Min_cycle;Max_cycle;Signal;HPM_P1;HPM_P2
2022/07/21 00:01:29;;;;;;;18.30;16.70;;;21.30;99.90;;;;;;5080166;28;20205;-51
2022/07/21 00:03:55;;;;;;;15.50;14.20;;;21.20;99.90;;;;;;5079989;28;20586;-51
2022/07/21 00:06:20;;;;;;;16.83;15.40;;;21.30;99.90;;;;;;5080041;28;20417;-50
2022/07/21 00:08:46;;;;;;;17.13;15.63;;;21.30;99.90;;;;;;5080091;28;20588;-49
2022/07/21 00:11:12;;;;;;;17.83;16.20;;;21.30;99.90;;;;;;5079721;28;20193;-49
2022/07/21 00:13:37;;;;;;;17.70;16.00;;;21.20;99.90;;;;;;5079272;28;20178;-48
2022/07/21 00:16:03;;;;;;;17.47;15.93;;;21.10;99.90;;;;;;5080096;28;20540;-49
2022/07/21 00:18:29;;;;;;;14.47;13.37;;;21.10;99.90;;;;;;5080355;28;20184;-48
2022/07/21 00:20:56;;;;;;;15.60;14.20;;;21.10;99.90;;;;;;5080093;28;20431;-52
2022/07/21 00:23:23;;;;;;;16.53;15.13;;;21.00;99.90;;;;;;5080287;28;20213;-49
2022/07/21 00:25:49;;;;;;;16.07;14.67;;;21.00;99.90;;;;;;5078842;28;20694;-51
2022/07/21 00:28:14;;;;;;;16.20;14.77;;;21.00;99.90;;;;;;5079849;28;20443;-50
2022/07/21 00:30:40;;;;;;;15.20;13.90;;;21.00;99.90;;;;;;5079772;28;20427;-49
2022/07/21 00:33:06;;;;;;;16.07;14.57;;;21.00;99.90;;;;;;5079680;28;20233;-49
2022/07/21 00:35:31;;;;;;;15.77;14.37;;;21.00;99.90;;;;;;5079230;28;20707;-47
2022/07/21 00:37:57;;;;;;;14.67;13.47;;;21.00;99.90;;;;;;5080307;28;20222;-47
2022/07/21 00:40:23;;;;;;;14.27;13.07;;;21.00;99.90;;;;;;5079966;28;20173;-46
2022/07/21 00:42:49;;;;;;;13.47;12.37;;;21.00;99.90;;;;;;5079213;28;20520;-51
2022/07/21 00:45:15;;;;;;;14.30;13.20;;;21.10;99.90;;;;;;5079669;28;20453;-49
2022/07/21 00:47:40;;;;;;;13.83;12.70;;;21.10;99.90;;;;;;5079363;28;20179;-50
2022/07/21 00:50:09;;;;;;;14.17;12.90;;;21.10;99.90;;;;;;5079743;28;20190;-49
2022/07/21 00:52:35;;;;;;;14.03;12.93;;;21.10;99.90;;;;;;5079322;28;20586;-55
2022/07/21 00:55:02;;;;;;;14.60;13.50;;;21.00;99.90;;;;;;5078929;28;20457;-51
2022/07/21 00:57:27;;;;;;;14.60;13.20;;;20.90;99.90;;;;;;5079488;28;20486;-51
2022/07/21 00:59:53;;;;;;;16.77;15.47;;;20.90;99.90;;;;;;5079436;28;20514;-55
2022/07/21 01:02:19;;;;;;;15.30;14.00;;;20.80;99.90;;;;;;5078307;28;20473;-49
2022/07/21 01:04:45;;;;;;;15.67;14.37;;;20.70;99.90;;;;;;5078816;28;20282;-49
2022/07/21 01:07:11;;;;;;;15.40;14.20;;;20.60;99.90;;;;;;5079511;28;20176;-53
2022/07/21 01:09:36;;;;;;;14.00;12.80;;;20.40;99.90;;;;;;5078633;28;20249;-53
2022/07/21 01:12:02;;;;;;;14.43;13.10;;;20.40;99.90;;;;;;5079198;28;20424;-49
2022/07/21 01:15:18;;;;;;;14.57;13.37;;;20.30;99.90;;;;;;5077649;28;20199;-51
2022/07/21 01:17:44;;;;;;;14.53;13.43;;;20.40;99.90;;;;;;5079192;28;20488;-50
2022/07/21 01:20:13;;;;;;;14.53;13.27;;;20.40;99.90;;;;;;5078941;28;20430;-51
2022/07/21 01:22:41;;;;;;;13.20;12.00;;;20.40;99.90;;;;;;5078360;28;20473;-48
2022/07/21 01:25:07;;;;;;;13.53;12.30;;;20.40;99.90;;;;;;5078061;28;20424;-51
2022/07/21 01:27:33;;;;;;;14.83;13.60;;;20.40;99.90;;;;;;5078614;28;20726;-51
2022/07/21 01:29:59;;;;;;;13.77;12.40;;;20.40;99.90;;;;;;5078521;28;20432;-52
2022/07/21 01:32:25;;;;;;;13.87;12.57;;;20.40;99.90;;;;;;5078864;28;20486;-51
2022/07/21 01:34:51;;;;;;;13.30;12.20;;;20.60;99.90;;;;;;5078316;28;20182;-50
2022/07/21 01:37:21;;;;;;;12.90;11.90;;;20.60;99.90;;;;;;5078293;28;20434;-50
2022/07/21 01:42:32;;;;;;;12.43;11.43;;;20.80;99.90;;;;;;5078112;28;20812;-50
2022/07/21 01:44:58;;;;;;;12.93;11.87;;;20.60;99.90;;;;;;5078337;28;20510;-54
2022/07/21 01:47:23;;;;;;;12.73;11.50;;;20.50;99.90;;;;;;5078093;28;20199;-51
2022/07/21 01:49:49;;;;;;;13.60;12.30;;;20.40;99.90;;;;;;5076731;28;20481;-53
2022/07/21 01:52:15;;;;;;;14.23;13.00;;;20.30;99.90;;;;;;5076823;28;20197;-52
2022/07/21 01:54:41;;;;;;;13.63;12.53;;;20.10;99.90;;;;;;5077330;28;20432;-52
2022/07/21 01:57:07;;;;;;;12.17;11.20;;;19.90;99.90;;;;;;5077731;28;20191;-52
2022/07/21 01:59:32;;;;;;;12.77;11.47;;;19.80;99.90;;;;;;5077586;28;20217;-51
2022/07/21 02:01:58;;;;;;;12.87;11.70;;;19.80;99.90;;;;;;5077413;28;20474;-50
2022/07/21 02:04:24;;;;;;;12.97;11.80;;;19.80;99.90;;;;;;5077019;28;20192;-53
2022/07/21 02:06:49;;;;;;;12.93;11.77;;;19.80;99.90;;;;;;5077657;28;20191;-53
2022/07/21 02:09:15;;;;;;;12.77;11.67;;;19.90;99.90;;;;;;5078150;28;20198;-52
2022/07/21 02:11:40;;;;;;;11.57;10.67;;;19.90;99.90;;;;;;5077749;28;20240;-49
2022/07/21 02:14:07;;;;;;;12.13;11.00;;;19.90;99.90;;;;;;5078398;28;20198;-47
2022/07/21 02:16:33;;;;;;;11.97;10.87;;;20.10;99.90;;;;;;5077892;28;20306;-47
2022/07/21 02:18:58;;;;;;;10.83;9.93;;;20.10;99.90;;;;;;5077129;28;20847;-48
2022/07/21 02:21:24;;;;;;;12.60;11.50;;;20.20;99.90;;;;;;5077583;28;20437;-48
2022/07/21 02:23:50;;;;;;;12.03;10.87;;;20.30;99.90;;;;;;5077372;28;20527;-50
2022/07/21 02:26:15;;;;;;;10.80;9.90;;;20.40;99.90;;;;;;5077629;28;20185;-48
2022/07/21 02:28:41;;;;;;;11.17;10.07;;;20.30;99.90;;;;;;5077506;28;20242;-48
2022/07/21 02:31:07;;;;;;;10.63;9.63;;;20.30;99.90;;;;;;5076715;28;20247;-48
2022/07/21 02:33:34;;;;;;;11.33;10.33;;;20.30;99.90;;;;;;5077021;28;20279;-49
2022/07/21 02:35:59;;;;;;;11.03;10.20;;;20.30;99.90;;;;;;5077932;28;20434;-51
2022/07/21 02:38:25;;;;;;;11.47;10.40;;;20.30;99.90;;;;;;5076604;28;20430;-46
2022/07/21 02:40:51;;;;;;;10.53;9.73;;;20.30;99.90;;;;;;5077275;28;20216;-51
2022/07/21 02:43:17;;;;;;;11.10;10.20;;;20.40;99.90;;;;;;5077764;28;20244;-47
2022/07/21 02:45:43;;;;;;;10.23;9.37;;;20.40;99.90;;;;;;5077157;28;20193;-51
2022/07/21 02:48:13;;;;;;;9.97;9.27;;;20.40;99.90;;;;;;5077618;28;20817;-49
2022/07/21 02:50:42;;;;;;;11.53;10.60;;;20.50;99.90;;;;;;5076238;28;20421;-49
2022/07/21 02:53:13;;;;;;;10.07;9.23;;;20.50;99.90;;;;;;5077904;28;20442;-50
2022/07/21 02:55:40;;;;;;;10.63;9.73;;;20.50;99.90;;;;;;5076664;28;20458;-48
2022/07/21 02:58:16;;;;;;;11.57;10.57;;;20.50;99.90;;;;;;5077248;28;20425;-49
2022/07/21 03:00:50;;;;;;;11.17;10.20;;;20.50;99.90;;;;;;5077639;28;20430;-47
2022/07/21 03:03:16;;;;;;;11.33;10.23;;;20.50;99.90;;;;;;5077001;28;20566;-51
2022/07/21 03:05:42;;;;;;;10.00;8.90;;;20.50;99.90;;;;;;5076338;28;20521;-47
2022/07/21 03:08:09;;;;;;;13.97;10.97;;;20.40;99.90;;;;;;5075418;28;20183;-52
2022/07/21 03:10:35;;;;;;;11.63;10.60;;;20.40;99.90;;;;;;5075856;28;20581;-50
2022/07/21 03:13:02;;;;;;;9.77;8.97;;;20.10;99.90;;;;;;5075891;28;20430;-50
2022/07/21 03:15:28;;;;;;;12.00;10.90;;;20.00;99.90;;;;;;5075406;28;20899;-53
2022/07/21 03:17:54;;;;;;;13.10;12.00;;;19.90;99.90;;;;;;5075398;28;20427;-49
2022/07/21 03:20:26;;;;;;;10.97;10.07;;;19.70;99.90;;;;;;5076359;28;20786;-55
2022/07/21 03:22:51;;;;;;;11.23;10.30;;;19.60;99.90;;;;;;5076549;28;20543;-52
2022/07/21 03:25:18;;;;;;;14.27;12.80;;;19.60;99.90;;;;;;5077226;28;20424;-50
2022/07/21 03:27:44;;;;;;;11.30;10.20;;;19.50;99.90;;;;;;5076825;28;20544;-50
2022/07/21 03:30:11;;;;;;;13.50;12.07;;;19.50;99.90;;;;;;5075322;28;20504;-53
2022/07/21 03:32:36;;;;;;;14.40;11.60;;;19.40;99.90;;;;;;5075197;28;20486;-49
2022/07/21 03:35:04;;;;;;;12.30;11.10;;;19.40;99.90;;;;;;5074913;28;20534;-53
2022/07/21 03:37:30;;;;;;;12.60;11.40;;;19.40;99.90;;;;;;5075046;28;20180;-54
2022/07/21 03:39:56;;;;;;;12.50;11.43;;;19.40;99.90;;;;;;5074721;28;20419;-53
2022/07/21 03:42:22;;;;;;;11.67;10.47;;;19.50;99.90;;;;;;5073055;28;20478;-50
2022/07/21 03:44:47;;;;;;;11.50;10.43;;;19.50;99.90;;;;;;5074578;28;20439;-50
2022/07/21 03:47:13;;;;;;;10.43;9.53;;;19.50;99.90;;;;;;5074931;28;20176;-49
2022/07/21 03:49:39;;;;;;;10.57;9.77;;;19.70;99.90;;;;;;5079004;28;20178;-48
2022/07/21 03:52:04;;;;;;;11.80;10.80;;;19.70;99.90;;;;;;5080148;28;20198;-52
2022/07/21 03:54:30;;;;;;;12.33;10.90;;;19.90;99.90;;;;;;5079793;28;20180;-51
2022/07/21 03:56:56;;;;;;;11.00;9.83;;;20.00;99.90;;;;;;5079210;28;20209;-51
2022/07/21 03:59:21;;;;;;;11.10;10.17;;;20.10;99.90;;;;;;5077552;28;20188;-56
2022/07/21 04:01:47;;;;;;;11.17;10.10;;;20.20;99.90;;;;;;5078231;28;20188;-55
2022/07/21 04:04:12;;;;;;;12.07;10.93;;;20.20;99.90;;;;;;5078148;28;20222;-50
2022/07/21 04:06:38;;;;;;;11.17;10.27;;;20.30;99.90;;;;;;5077798;28;20530;-48
2022/07/21 04:09:04;;;;;;;10.77;9.93;;;20.40;99.90;;;;;;5078585;28;20275;-49
2022/07/21 04:11:32;;;;;;;11.03;10.13;;;20.40;99.90;;;;;;5078856;28;20218;-51
2022/07/21 04:13:58;;;;;;;11.10;10.20;;;20.40;99.90;;;;;;5076967;28;20572;-49
2022/07/21 04:16:24;;;;;;;12.47;11.47;;;20.40;99.90;;;;;;5078368;28;20460;-53
2022/07/21 04:18:49;;;;;;;12.00;11.10;;;20.50;99.90;;;;;;5078459;28;20589;-49
2022/07/21 04:21:15;;;;;;;11.60;10.50;;;20.50;99.90;;;;;;5079155;28;20192;-51
2022/07/21 04:23:41;;;;;;;11.53;10.67;;;20.40;99.90;;;;;;5078708;28;20286;-49
2022/07/21 04:26:06;;;;;;;12.30;11.07;;;20.50;99.90;;;;;;5076070;28;20203;-50
2022/07/21 04:28:32;;;;;;;10.70;9.90;;;20.60;99.90;;;;;;5076808;28;20176;-50
2022/07/21 04:30:58;;;;;;;12.00;10.83;;;20.60;99.90;;;;;;5075779;28;20191;-56
2022/07/21 04:33:23;;;;;;;12.77;11.77;;;20.70;99.90;;;;;;5075737;28;20711;-56
2022/07/21 04:35:49;;;;;;;11.70;10.70;;;20.70;99.90;;;;;;5076048;28;20273;-56
2022/07/21 04:38:14;;;;;;;11.40;10.40;;;20.60;99.90;;;;;;5074355;28;20197;-51
2022/07/21 04:40:40;;;;;;;11.67;10.77;;;20.60;99.90;;;;;;5075606;28;20200;-55
2022/07/21 04:43:06;;;;;;;11.50;10.50;;;20.70;99.90;;;;;;5075685;28;20304;-51
2022/07/21 04:45:32;;;;;;;12.43;11.23;;;20.70;99.90;;;;;;5075551;28;20180;-53
2022/07/21 04:47:58;;;;;;;12.50;11.40;;;20.60;99.90;;;;;;5076373;28;20188;-56
2022/07/21 04:50:26;;;;;;;12.43;11.33;;;20.60;99.90;;;;;;5075000;28;20416;-52
2022/07/21 04:52:53;;;;;;;12.10;11.00;;;20.60;99.90;;;;;;5074723;28;20519;-55
2022/07/21 04:55:19;;;;;;;12.20;11.20;;;20.70;99.90;;;;;;5074456;28;20423;-55
2022/07/21 04:57:47;;;;;;;12.63;11.67;;;20.70;99.90;;;;;;5075569;28;20431;-52
2022/07/21 05:00:15;;;;;;;12.17;11.17;;;20.80;99.90;;;;;;5074512;28;20416;-53
2022/07/21 05:02:41;;;;;;;11.90;11.00;;;20.90;99.90;;;;;;5071018;28;20475;-54
2022/07/21 05:05:07;;;;;;;13.23;12.03;;;21.00;99.90;;;;;;5076399;28;20435;-56
2022/07/21 05:07:34;;;;;;;12.00;10.90;;;20.90;99.90;;;;;;5075914;28;20427;-55
2022/07/21 05:10:02;;;;;;;11.97;10.87;;;21.00;99.90;;;;;;5074864;28;21059;-55
2022/07/21 05:12:28;;;;;;;12.30;11.30;;;21.00;99.90;;;;;;5074939;28;20429;-56
2022/07/21 05:14:53;;;;;;;12.07;11.10;;;21.10;99.90;;;;;;5072980;28;20905;-55
2022/07/21 05:17:19;;;;;;;11.50;10.43;;;21.10;99.90;;;;;;5073418;28;20193;-54
2022/07/21 05:19:48;;;;;;;11.00;10.00;;;21.20;99.90;;;;;;5073425;28;20191;-51
2022/07/21 05:22:14;;;;;;;12.67;11.67;;;21.30;99.90;;;;;;5073438;28;20212;-52
2022/07/21 05:24:39;;;;;;;12.30;11.20;;;21.30;99.90;;;;;;5073729;28;20880;-53
2022/07/21 05:27:05;;;;;;;12.23;11.23;;;21.40;99.90;;;;;;5075274;28;20179;-56
2022/07/21 05:29:31;;;;;;;11.73;10.87;;;21.50;99.90;;;;;;5076657;28;20282;-55
2022/07/21 05:31:56;;;;;;;13.50;12.30;;;21.50;99.90;;;;;;5076697;28;20226;-52
2022/07/21 05:34:22;;;;;;;13.10;12.00;;;21.60;99.90;;;;;;5075428;28;20191;-55
2022/07/21 05:36:47;;;;;;;12.07;11.17;;;21.60;99.90;;;;;;5065227;28;20533;-52
2022/07/21 05:39:13;;;;;;;13.60;12.33;;;21.70;99.90;;;;;;5056011;28;20482;-55
2022/07/21 05:41:39;;;;;;;12.57;11.57;;;21.70;99.90;;;;;;5056200;28;20605;-49
2022/07/21 05:44:04;;;;;;;13.10;12.10;;;21.70;99.90;;;;;;5053688;28;20503;-56
2022/07/21 05:46:30;;;;;;;14.20;13.10;;;21.70;99.90;;;;;;5060004;28;20272;-57
2022/07/21 05:48:56;;;;;;;14.97;13.67;;;21.50;99.90;;;;;;5069461;28;20247;-53
2022/07/21 05:51:21;;;;;;;13.90;12.70;;;21.40;99.90;;;;;;5069860;28;20497;-55
2022/07/21 05:53:47;;;;;;;14.07;12.80;;;21.30;99.90;;;;;;5069191;28;20171;-56
2022/07/21 05:56:13;;;;;;;13.30;12.20;;;21.10;99.90;;;;;;5068525;28;20184;-56
2022/07/21 05:58:38;;;;;;;14.93;13.63;;;21.20;99.90;;;;;;5068804;28;20185;-55
2022/07/21 06:01:12;;;;;;;14.50;13.27;;;21.30;99.90;;;;;;5069345;28;20637;-49
2022/07/21 06:03:42;;;;;;;11.80;10.80;;;21.40;99.90;;;;;;5073198;28;20206;-50
2022/07/21 06:06:09;;;;;;;13.00;11.87;;;21.50;99.90;;;;;;5072515;28;20948;-52
2022/07/21 06:08:38;;;;;;;13.50;12.20;;;21.80;99.90;;;;;;5070912;28;20426;-52
2022/07/21 06:11:03;;;;;;;13.87;12.67;;;22.00;99.30;;;;;;5069263;28;20920;-52
2022/07/21 06:13:29;;;;;;;13.50;12.40;;;22.10;98.60;;;;;;5068553;28;20434;-54
2022/07/21 06:15:55;;;;;;;13.27;12.17;;;22.20;98.60;;;;;;5070572;28;20267;-48
2022/07/21 06:18:20;;;;;;;13.30;12.20;;;22.30;98.50;;;;;;5070030;28;20186;-51
2022/07/21 06:20:46;;;;;;;12.93;11.93;;;22.20;97.60;;;;;;5071759;28;20179;-53
2022/07/21 06:23:13;;;;;;;14.00;12.90;;;22.20;98.00;;;;;;5071450;28;20207;-52
2022/07/21 06:25:38;;;;;;;13.87;12.67;;;22.40;98.40;;;;;;5072518;28;20184;-53
2022/07/21 06:28:04;;;;;;;13.93;12.73;;;22.50;98.40;;;;;;5071855;28;20502;-52
2022/07/21 06:30:30;;;;;;;14.00;12.90;;;22.70;97.80;;;;;;5072943;28;20217;-54
2022/07/21 06:32:56;;;;;;;15.03;13.63;;;22.70;97.10;;;;;;5072667;28;20239;-52
2022/07/21 06:35:21;;;;;;;13.87;12.67;;;22.80;97.70;;;;;;5072516;28;20506;-54
2022/07/21 06:37:47;;;;;;;15.47;13.80;;;23.00;97.70;;;;;;5073275;28;20405;-52
2022/07/21 06:40:13;;;;;;;14.33;13.23;;;23.00;97.10;;;;;;5073485;28;20220;-55
2022/07/21 06:42:39;;;;;;;13.43;12.10;;;22.80;97.00;;;;;;5071607;28;20318;-54
2022/07/21 06:45:05;;;;;;;13.63;12.47;;;22.90;97.10;;;;;;5071649;28;20772;-53
2022/07/21 06:47:31;;;;;;;14.83;13.50;;;23.00;97.00;;;;;;5072087;28;20196;-55
2022/07/21 06:50:02;;;;;;;13.30;12.20;;;23.00;96.90;;;;;;5071809;28;20750;-53
2022/07/21 06:52:28;;;;;;;15.00;13.70;;;23.00;96.80;;;;;;5072992;28;20202;-55
2022/07/21 06:54:54;;;;;;;13.70;12.60;;;23.00;96.20;;;;;;5073166;28;20467;-52
2022/07/21 06:57:19;;;;;;;12.77;11.77;;;23.00;96.80;;;;;;5074107;28;20457;-55
2022/07/21 06:59:45;;;;;;;13.30;12.20;;;23.20;97.00;;;;;;5074107;28;20179;-53
2022/07/21 07:02:11;;;;;;;14.47;13.17;;;23.30;96.40;;;;;;5073308;28;20190;-51
2022/07/21 07:04:36;;;;;;;11.33;10.43;;;23.40;95.80;;;;;;5073008;28;20180;-53
2022/07/21 07:07:02;;;;;;;16.47;14.97;;;23.40;96.30;;;;;;5073486;28;20184;-53
2022/07/21 07:09:28;;;;;;;14.47;13.27;;;23.40;96.00;;;;;;5071458;28;20184;-49
2022/07/21 07:12:02;;;;;;;14.30;12.80;;;23.40;96.60;;;;;;5071786;28;20245;-52
2022/07/21 07:14:28;;;;;;;12.17;11.17;;;23.50;96.30;;;;;;5071895;28;20466;-50
2022/07/21 07:16:54;;;;;;;12.33;11.33;;;23.70;96.10;;;;;;5074279;28;20428;-50
2022/07/21 07:19:19;;;;;;;13.40;12.30;;;24.00;95.50;;;;;;5074222;28;20430;-48
2022/07/21 07:21:45;;;;;;;13.40;12.20;;;24.30;94.70;;;;;;5073223;28;20245;-50
2022/07/21 07:24:11;;;;;;;11.47;10.57;;;24.60;94.30;;;;;;5074042;28;20215;-49
2022/07/21 07:26:36;;;;;;;12.40;11.40;;;24.80;93.90;;;;;;5078192;28;20492;-50
2022/07/21 07:29:02;;;;;;;13.40;12.30;;;24.90;93.00;;;;;;5078111;28;20475;-54
2022/07/21 07:31:27;;;;;;;12.43;11.43;;;25.10;91.90;;;;;;5077702;28;20244;-50
2022/07/21 07:33:56;;;;;;;12.73;11.63;;;25.10;91.30;;;;;;5076723;28;20176;-50
2022/07/21 07:36:26;;;;;;;13.40;12.27;;;24.80;91.20;;;;;;5075488;28;20184;-53
2022/07/21 07:38:52;;;;;;;11.83;10.80;;;24.40;91.90;;;;;;5076536;28;20417;-50
2022/07/21 07:41:21;;;;;;;11.97;11.07;;;24.50;91.70;;;;;;5077218;28;20522;-55
2022/07/21 07:43:47;;;;;;;12.87;11.77;;;24.90;92.40;;;;;;5077442;28;20609;-53
2022/07/21 07:46:13;;;;;;;11.00;10.10;;;25.10;90.60;;;;;;5075989;28;20513;-51
2022/07/21 07:48:41;;;;;;;12.50;11.40;;;25.10;90.20;;;;;;5075265;28;20516;-52
2022/07/21 07:51:07;;;;;;;12.73;11.60;;;25.40;90.20;;;;;;5075378;28;20177;-50
2022/07/21 07:53:33;;;;;;;11.80;10.90;;;25.30;90.70;;;;;;5074561;28;20511;-50
2022/07/21 07:55:59;;;;;;;12.23;10.37;;;24.90;90.20;;;;;;5073547;28;20827;-57
2022/07/21 07:58:25;;;;;;;11.70;10.70;;;24.50;90.90;;;;;;5059096;28;20185;-54
2022/07/21 08:00:50;;;;;;;11.40;10.50;;;24.40;91.20;;;;;;5077024;28;20268;-50
2022/07/21 08:03:16;;;;;;;12.10;11.20;;;24.20;91.20;;;;;;5077542;28;20484;-50
2022/07/21 08:05:42;;;;;;;12.00;11.10;;;24.10;91.90;;;;;;5078571;28;20185;-49
2022/07/21 08:08:09;;;;;;;11.30;10.50;;;24.00;92.40;;;;;;5076531;28;20282;-49
2022/07/21 08:10:35;;;;;;;11.70;10.80;;;23.90;92.60;;;;;;5077109;28;20426;-53
2022/07/21 08:13:01;;;;;;;11.50;10.50;;;23.80;92.70;;;;;;5075306;28;20520;-52
2022/07/21 08:15:26;;;;;;;11.80;9.97;;;23.80;93.00;;;;;;5077307;28;20520;-50
2022/07/21 08:17:52;;;;;;;11.60;10.70;;;23.60;92.90;;;;;;5074314;28;20274;-51
2022/07/21 08:20:18;;;;;;;11.13;10.27;;;23.60;93.50;;;;;;5075064;28;20193;-50
2022/07/21 08:22:43;;;;;;;12.00;10.87;;;23.70;93.30;;;;;;5076080;28;20219;-52
2022/07/21 08:25:09;;;;;;;11.40;10.30;;;23.70;92.40;;;;;;5058074;28;20299;-54
2022/07/21 08:27:35;;;;;;;12.23;11.33;;;23.90;91.50;;;;;;5074986;28;20189;-52
2022/07/21 08:30:01;;;;;;;12.07;11.13;;;24.40;91.40;;;;;;5074840;28;20295;-54
2022/07/21 08:32:27;;;;;;;10.87;10.03;;;24.30;90.50;;;;;;5077888;28;20233;-51
2022/07/21 08:34:54;;;;;;;10.70;9.80;;;24.40;90.40;;;;;;5076829;28;20423;-54
2022/07/21 08:37:21;;;;;;;11.53;10.57;;;24.70;90.20;;;;;;5076684;28;20450;-54
2022/07/21 08:39:47;;;;;;;11.00;10.00;;;25.10;89.90;;;;;;5077211;28;20426;-49
2022/07/21 08:42:14;;;;;;;10.10;9.20;;;25.30;87.60;;;;;;5077681;28;20193;-53
2022/07/21 08:44:40;;;;;;;9.67;8.97;;;25.70;86.80;;;;;;5077520;28;20751;-52
2022/07/21 08:47:06;;;;;;;10.33;9.57;;;25.90;85.40;;;;;;5077056;28;20858;-52
2022/07/21 08:49:34;;;;;;;10.13;9.23;;;26.10;83.90;;;;;;5076545;28;20404;-51
2022/07/21 08:52:00;;;;;;;10.60;9.80;;;26.10;83.80;;;;;;5075767;28;20180;-51
2022/07/21 08:54:25;;;;;;;10.77;9.87;;;26.10;83.90;;;;;;5075959;28;20408;-49
2022/07/21 08:56:51;;;;;;;9.73;8.93;;;26.00;81.50;;;;;;5075889;28;20254;-52
2022/07/21 08:59:17;;;;;;;10.07;9.20;;;26.00;80.40;;;;;;5076145;28;20562;-51
2022/07/21 09:01:42;;;;;;;9.57;8.87;;;25.50;80.90;;;;;;5075975;28;20564;-50
2022/07/21 09:04:22;;;;;;;10.23;9.33;;;25.80;82.60;;;;;;5075816;28;20212;-51
2022/07/21 09:06:57;;;;;;;10.07;9.17;;;25.70;81.50;;;;;;5075417;28;20314;-49
2022/07/21 09:09:24;;;;;;;10.40;9.30;;;25.60;80.60;;;;;;5076992;28;20418;-50
2022/07/21 09:11:50;;;;;;;10.13;9.07;;;25.30;82.30;;;;;;5075991;28;20768;-50
2022/07/21 09:14:19;;;;;;;10.37;9.57;;;25.50;82.30;;;;;;5076488;28;20424;-49
2022/07/21 09:16:57;;;;;;;11.27;10.37;;;25.90;82.00;;;;;;5074589;28;20852;-50
2022/07/21 09:19:35;;;;;;;9.40;8.70;;;26.30;79.10;;;;;;5073850;28;20447;-52
2022/07/21 09:22:06;;;;;;;9.50;8.73;;;26.30;79.70;;;;;;5073233;28;20443;-52
2022/07/21 09:24:38;;;;;;;8.80;8.10;;;26.50;76.20;;;;;;5073604;28;20792;-51
2022/07/21 09:27:17;;;;;;;8.43;7.73;;;26.50;75.10;;;;;;5074202;28;20408;-54
2022/07/21 09:29:57;;;;;;;7.97;7.27;;;26.30;73.70;;;;;;5073752;28;20408;-53
2022/07/21 09:32:31;;;;;;;7.57;6.97;;;26.20;71.40;;;;;;5073799;28;20620;-50
2022/07/21 09:35:09;;;;;;;8.47;7.77;;;26.70;72.40;;;;;;5074549;28;20415;-50
2022/07/21 09:37:36;;;;;;;7.83;7.23;;;27.10;68.80;;;;;;5074971;28;20418;-50
2022/07/21 09:40:07;;;;;;;8.40;7.70;;;27.00;69.60;;;;;;5075393;28;20416;-49
2022/07/21 09:42:44;;;;;;;7.93;7.33;;;27.30;68.50;;;;;;5074173;28;20464;-50
2022/07/21 09:45:12;;;;;;;7.67;7.07;;;27.20;68.00;;;;;;5074409;28;20652;-52
2022/07/21 09:47:39;;;;;;;8.00;7.30;;;26.90;66.10;;;;;;5075200;28;20412;-51
2022/07/21 09:50:06;;;;;;;7.23;6.53;;;27.00;67.40;;;;;;5072422;28;20782;-51
2022/07/21 09:52:37;;;;;;;6.80;6.30;;;26.90;67.10;;;;;;5071529;28;20503;-49
2022/07/21 09:55:09;;;;;;;6.87;6.27;;;27.00;67.20;;;;;;5071088;28;20624;-55
2022/07/21 09:57:35;;;;;;;11.10;7.03;;;26.80;64.70;;;;;;5068177;28;20460;-52
2022/07/21 10:00:11;;;;;;;9.20;6.77;;;27.30;65.10;;;;;;5070181;28;20423;-55
2022/07/21 10:02:36;;;;;;;6.63;6.00;;;27.40;63.90;;;;;;5069468;28;20498;-57
2022/07/21 10:05:08;;;;;;;6.40;5.90;;;27.30;62.40;;;;;;5071011;28;20457;-53
2022/07/21 10:07:38;;;;;;;7.10;6.60;;;27.30;61.90;;;;;;5069946;28;20746;-54
2022/07/21 10:10:04;;;;;;;8.23;7.53;;;27.70;61.40;;;;;;5069894;28;20418;-50
2022/07/21 10:12:30;;;;;;;6.80;6.10;;;28.00;62.60;;;;;;5068691;28;20433;-51
2022/07/21 10:14:55;;;;;;;8.27;7.57;;;27.80;60.40;;;;;;5069482;28;20458;-53
2022/07/21 10:17:23;;;;;;;7.03;6.33;;;27.40;63.00;;;;;;5069587;28;20186;-50
2022/07/21 10:19:48;;;;;;;6.93;6.37;;;27.40;62.90;;;;;;5070201;28;20178;-51
2022/07/21 10:22:41;;;;;;;6.73;6.03;;;27.10;61.30;;;;;;5069723;28;20427;-53
2022/07/21 10:25:07;;;;;;;7.10;6.57;;;26.70;62.30;;;;;;5072578;28;20573;-55
2022/07/21 10:27:32;;;;;;;8.27;7.50;;;26.90;62.70;;;;;;5071798;28;20407;-54
2022/07/21 10:30:03;;;;;;;7.70;7.00;;;27.50;61.80;;;;;;5072292;28;20175;-53
2022/07/21 10:32:37;;;;;;;6.23;5.73;;;27.50;60.70;;;;;;5072481;28;20237;-51
2022/07/21 10:35:26;;;;;;;7.03;6.50;;;27.90;59.60;;;;;;5071258;28;20459;-51
2022/07/21 10:37:52;;;;;;;6.53;5.97;;;28.50;58.40;;;;;;5066475;28;20447;-55
2022/07/21 10:40:20;;;;;;;6.93;6.30;;;28.60;58.30;;;;;;5073448;28;20451;-56
2022/07/21 10:43:06;;;;;;;6.73;6.13;;;28.80;57.80;;;;;;5071820;28;20487;-57
2022/07/21 10:45:37;;;;;;;6.60;6.10;;;29.00;56.30;;;;;;5071029;28;20733;-51
2022/07/21 10:48:05;;;;;;;6.33;5.83;;;29.40;56.20;;;;;;5074007;28;20387;-55
2022/07/21 10:50:41;;;;;;;5.80;5.40;;;29.60;55.40;;;;;;5072309;28;20849;-55
2022/07/21 10:53:15;;;;;;;5.63;5.23;;;30.00;53.70;;;;;;5067484;28;20796;-44
2022/07/21 10:55:52;;;;;;;6.13;5.63;;;29.60;52.90;;;;;;5069389;28;20427;-48
2022/07/21 10:58:37;;;;;;;6.93;6.33;;;29.40;52.60;;;;;;5069565;28;20441;-44
2022/07/21 11:01:13;;;;;;;6.90;6.40;;;29.60;53.30;;;;;;5069305;28;20527;-46
2022/07/21 11:03:40;;;;;;;6.20;5.63;;;30.30;51.10;;;;;;5072312;28;20467;-45
2022/07/21 11:06:09;;;;;;;7.17;6.57;;;30.70;50.30;;;;;;5072946;28;20692;-48
2022/07/21 11:08:42;;;;;;;6.40;5.90;;;29.60;51.60;;;;;;5071258;28;20446;-48
2022/07/21 11:11:14;;;;;;;6.70;6.10;;;29.20;53.50;;;;;;5071323;28;20445;-46
2022/07/21 11:14:05;;;;;;;6.93;6.23;;;29.00;52.90;;;;;;5071938;28;20415;-51
2022/07/21 11:16:52;;;;;;;6.53;6.10;;;29.00;52.70;;;;;;5067241;28;20420;-45
2022/07/21 11:19:40;;;;;;;6.80;6.30;;;29.20;52.60;;;;;;5068535;28;20779;-44
2022/07/21 11:22:22;;;;;;;7.30;6.70;;;28.60;53.70;;;;;;5071085;28;20390;-48
2022/07/21 11:24:51;;;;;;;7.40;6.80;;;28.70;53.80;;;;;;5068200;28;20423;-47
2022/07/21 11:27:21;;;;;;;6.70;6.10;;;29.30;52.50;;;;;;5052575;28;20416;-47
2022/07/21 11:29:48;;;;;;;6.00;5.57;;;29.70;50.10;;;;;;5069985;28;20424;-45
2022/07/21 11:32:15;;;;;;;6.73;6.23;;;29.60;49.40;;;;;;5068255;28;20764;-47
2022/07/21 11:35:02;;;;;;;7.27;6.57;;;30.40;50.20;;;;;;5071105;28;20431;-45
2022/07/21 11:37:33;;;;;;;7.00;6.30;;;30.90;49.30;;;;;;5070327;28;20420;-47
2022/07/21 11:40:00;;;;;;;6.77;6.27;;;31.40;47.70;;;;;;5071130;28;20426;-45
2022/07/21 11:42:27;;;;;;;6.97;6.47;;;31.30;48.30;;;;;;5072114;28;20575;-45
2022/07/21 11:44:53;;;;;;;6.73;6.23;;;31.30;48.10;;;;;;5072401;28;20494;-48
2022/07/21 11:47:25;;;;;;;6.70;6.20;;;31.00;47.90;;;;;;5055395;28;20457;-51
2022/07/21 11:49:52;;;;;;;6.57;6.00;;;30.70;47.50;;;;;;5071530;28;20528;-46
2022/07/21 11:52:19;;;;;;;6.97;6.37;;;30.60;46.10;;;;;;5073732;28;20503;-47
2022/07/21 11:54:46;;;;;;;6.70;6.20;;;30.40;45.90;;;;;;5074404;28;20461;-46
2022/07/21 11:57:12;;;;;;;6.80;6.23;;;31.00;47.20;;;;;;5074067;28;20418;-44
2022/07/21 11:59:42;;;;;;;6.73;6.13;;;31.50;45.90;;;;;;5072069;28;20706;-46
2022/07/21 12:02:13;;;;;;;7.37;6.77;;;31.90;46.50;;;;;;5072341;28;20838;-47
2022/07/21 12:04:41;;;;;;;6.60;6.00;;;32.40;45.50;;;;;;5071950;28;20638;-48
2022/07/21 12:07:20;;;;;;;6.20;5.80;;;32.40;45.00;;;;;;5071821;28;20379;-50
2022/07/21 12:09:49;;;;;;;6.10;5.57;;;32.00;44.80;;;;;;5070317;28;20805;-47
2022/07/21 12:12:19;;;;;;;6.40;5.87;;;31.40;44.30;;;;;;5073840;28;20425;-48
2022/07/21 12:14:48;;;;;;;8.60;6.87;;;31.00;44.60;;;;;;5073627;28;20393;-45
2022/07/21 12:17:17;;;;;;;7.10;6.40;;;31.00;44.80;;;;;;5073357;28;20400;-45
2022/07/21 12:19:43;;;;;;;7.00;6.30;;;31.30;44.10;;;;;;5071698;28;20412;-50
2022/07/21 12:22:09;;;;;;;7.03;6.20;;;31.30;44.10;;;;;;5074635;28;20395;-46
2022/07/21 12:24:55;;;;;;;6.60;5.97;;;31.80;44.50;;;;;;5075456;28;20463;-44
2022/07/21 12:27:21;;;;;;;5.70;5.30;;;32.10;43.10;;;;;;5075364;28;20821;-47
2022/07/21 12:29:47;;;;;;;6.20;5.70;;;32.70;42.50;;;;;;5075931;28;20663;-46
2022/07/21 12:32:14;;;;;;;7.20;6.27;;;33.40;42.00;;;;;;5076587;28;20525;-45
2022/07/21 12:34:50;;;;;;;6.80;6.20;;;33.60;41.30;;;;;;5072316;28;20282;-45
2022/07/21 12:37:17;;;;;;;6.90;6.33;;;32.90;41.00;;;;;;5074478;28;20531;-44
2022/07/21 12:39:57;;;;;;;5.97;5.57;;;32.30;41.30;;;;;;5073678;28;20419;-54